createdAt,value
2023-04-14T00:02:24.185Z,17.23
2023-04-14T00:06:27.279Z,19.27
2023-04-14T00:10:29.413Z,19.52
2023-04-14T00:14:31.413Z,19.83
2023-04-14T00:18:33.460Z,18.52
2023-04-14T00:22:35.486Z,15.75
2023-04-14T00:26:37.578Z,19.08
2023-04-14T00:30:39.555Z,18.17
2023-04-14T00:34:41.574Z,17.50
2023-04-14T00:38:43.586Z,16.33
2023-04-14T00:42:47.039Z,17.75
2023-04-14T00:46:49.501Z,16.88
2023-04-14T00:50:51.784Z,21.15
2023-04-14T00:54:53.857Z,20.30
2023-04-14T00:58:56.320Z,21.42
2023-04-14T01:03:00.113Z,19.90
2023-04-14T01:07:02.405Z,20.40
2023-04-14T01:11:16.977Z,21.05
2023-04-14T01:15:39.079Z,17.33
2023-04-14T01:19:42.236Z,18.52
2023-04-14T01:24:09.354Z,21.17
2023-04-14T01:28:49.738Z,18.95
2023-04-14T01:32:56.529Z,19.35
2023-04-14T01:37:06.571Z,21.23
2023-04-14T01:41:10.668Z,16.98
2023-04-14T01:45:23.525Z,19.30
2023-04-14T01:49:27.962Z,19.55
2023-04-14T01:53:33.976Z,20.55
2023-04-14T01:57:38.718Z,22.02
2023-04-14T02:01:42.837Z,20.42
2023-04-14T02:05:47.321Z,21.85
2023-04-14T02:09:50.291Z,22.98
2023-04-14T02:13:55.070Z,21.35
2023-04-14T02:17:58.630Z,24.05
2023-04-14T02:22:01.165Z,22.00
2023-04-14T02:26:12.981Z,19.52
2023-04-14T02:30:21.595Z,18.25
2023-04-14T02:34:28.217Z,24.10
2023-04-14T02:38:45.872Z,22.02
2023-04-14T02:42:56.240Z,24.02
2023-04-14T02:47:10.100Z,26.88
2023-04-14T02:51:18.232Z,25.88
2023-04-14T02:55:22.763Z,28.65
2023-04-14T02:59:27.389Z,30.77
2023-04-14T03:03:37.811Z,28.90
2023-04-14T03:07:44.201Z,28.08
2023-04-14T03:11:51.173Z,28.02
2023-04-14T03:15:56.522Z,24.48
2023-04-14T03:20:01.740Z,27.15
2023-04-14T03:24:07.077Z,24.77
2023-04-14T03:28:15.992Z,26.60
2023-04-14T03:32:23.344Z,28.95
2023-04-14T03:36:27.145Z,26.23
2023-04-14T03:40:34.962Z,28.95
2023-04-14T03:44:39.844Z,33.10
2023-04-14T03:48:45.710Z,31.83
2023-04-14T03:52:51.029Z,35.00
2023-04-14T03:56:56.857Z,35.80
2023-04-14T04:01:02.534Z,40.00
2023-04-14T04:05:04.975Z,41.47
2023-04-14T04:09:09.227Z,43.25
2023-04-14T04:13:17.565Z,44.00
2023-04-14T04:17:24.464Z,46.58
2023-04-14T04:21:31.740Z,43.65
2023-04-14T04:25:37.388Z,43.70
2023-04-14T04:29:52.734Z,47.38
2023-04-14T04:33:57.208Z,42.92
2023-04-14T04:38:01.031Z,39.42
2023-04-14T04:42:05.517Z,40.97
2023-04-14T04:46:21.752Z,40.25
2023-04-14T04:50:24.346Z,43.72
2023-04-14T04:54:28.003Z,37.08
2023-04-14T04:58:30.003Z,36.20
2023-04-14T05:02:32.134Z,35.08
2023-04-14T05:06:37.589Z,33.72
2023-04-14T05:10:39.626Z,37.03
2023-04-14T05:14:41.568Z,33.15
2023-04-14T05:18:43.731Z,30.95
2023-04-14T05:22:45.916Z,29.65
2023-04-14T05:27:09.567Z,32.13
2023-04-14T05:31:10.580Z,29.95
2023-04-14T05:35:13.287Z,28.00
2023-04-14T05:39:15.234Z,26.02
2023-04-14T05:43:17.341Z,24.42
2023-04-14T05:47:19.113Z,21.17
2023-04-14T05:51:21.535Z,25.10
2023-04-14T05:55:23.495Z,22.02
2023-04-14T05:59:25.712Z,18.65
2023-04-14T06:03:28.093Z,20.92
2023-04-14T06:07:30.565Z,19.88
2023-04-14T06:11:32.492Z,20.40
2023-04-14T06:15:34.117Z,19.95
2023-04-14T06:19:36.128Z,20.23
2023-04-14T06:23:38.171Z,17.65
2023-04-14T06:27:40.184Z,17.95
2023-04-14T06:31:42.333Z,16.38
2023-04-14T06:35:45.113Z,15.52
2023-04-14T06:39:47.273Z,15.23
2023-04-14T06:43:49.369Z,14.15
2023-04-14T06:47:51.773Z,14.85
2023-04-14T06:51:54.043Z,14.55
2023-04-14T06:55:59.752Z,12.27
2023-04-14T07:00:02.057Z,12.48
2023-04-14T07:04:07.506Z,11.55
2023-04-14T07:08:10.089Z,10.30
2023-04-14T07:12:14.093Z,9.80
2023-04-14T07:16:16.354Z,8.40
2023-04-14T07:20:18.635Z,9.15
2023-04-14T07:24:20.737Z,7.63
2023-04-14T07:28:23.733Z,7.93
2023-04-14T07:32:25.746Z,8.68
2023-04-14T07:36:28.014Z,8.25
2023-04-14T07:40:30.050Z,7.45
2023-04-14T07:44:33.233Z,8.25
2023-04-14T07:48:36.817Z,7.65
2023-04-14T07:52:38.977Z,8.32
2023-04-14T07:56:41.047Z,7.80
2023-04-14T08:00:43.609Z,7.93
2023-04-14T08:04:45.592Z,6.82
2023-04-14T08:08:47.987Z,6.57
2023-04-14T08:12:50.724Z,6.68
2023-04-14T08:16:53.411Z,7.13
2023-04-14T08:20:56.150Z,6.43
2023-04-14T08:24:58.333Z,6.90
2023-04-14T08:29:00.764Z,7.25
2023-04-14T08:33:02.950Z,6.80
2023-04-14T08:37:05.135Z,6.80
2023-04-14T08:41:09.274Z,6.30
2023-04-14T08:45:12.440Z,5.93
2023-04-14T08:49:25.978Z,6.50
2023-04-14T08:53:31.242Z,7.18
2023-04-14T08:57:33.756Z,6.28
2023-04-14T09:01:37.723Z,7.05
2023-04-14T09:05:41.592Z,7.22
2023-04-14T09:09:44.142Z,6.10
2023-04-14T09:13:49.550Z,7.60
2023-04-14T09:17:51.619Z,7.30
2023-04-14T09:21:55.744Z,7.22
2023-04-14T09:25:59.358Z,6.35
2023-04-14T09:30:01.506Z,7.55
2023-04-14T09:34:04.107Z,7.95
2023-04-14T09:38:07.298Z,6.70
2023-04-14T09:42:09.314Z,8.25
2023-04-14T09:46:11.896Z,7.78
2023-04-14T09:50:14.169Z,8.10
2023-04-14T09:54:26.495Z,7.65
2023-04-14T09:58:37.206Z,7.18
2023-04-14T10:02:58.135Z,6.97
2023-04-14T10:07:01.420Z,6.57
2023-04-14T10:11:25.965Z,7.63
2023-04-14T10:15:28.335Z,6.90
2023-04-14T10:19:30.936Z,6.20
2023-04-14T10:23:35.992Z,6.70
2023-04-14T10:27:38.591Z,6.88
2023-04-14T10:31:45.306Z,7.25
2023-04-14T10:35:49.634Z,5.72
2023-04-14T10:39:56.302Z,7.80
2023-04-14T10:43:58.366Z,6.57
2023-04-14T10:48:00.784Z,6.45
2023-04-14T10:52:13.506Z,6.90
2023-04-14T10:56:16.165Z,6.38
2023-04-14T11:00:27.714Z,5.95
2023-04-14T11:04:29.850Z,6.13
2023-04-14T11:08:35.800Z,5.95
2023-04-14T11:12:43.752Z,5.40
2023-04-14T11:16:54.220Z,5.40
2023-04-14T11:21:15.865Z,5.53
2023-04-14T11:25:23.007Z,5.88
2023-04-14T11:29:26.147Z,4.73
2023-04-14T11:33:32.609Z,4.10
2023-04-14T11:37:36.180Z,4.65
2023-04-14T11:41:38.959Z,4.10
2023-04-14T11:45:45.306Z,4.43
2023-04-14T11:49:47.704Z,3.40
2023-04-14T11:53:49.690Z,4.20
2023-04-14T11:57:51.878Z,3.88
2023-04-14T12:01:53.941Z,4.40
2023-04-14T12:06:01.684Z,3.63
2023-04-14T12:10:05.570Z,2.43
2023-04-14T12:14:07.826Z,3.05
2023-04-14T12:18:15.846Z,2.88
2023-04-14T12:22:29.489Z,2.97
2023-04-14T12:26:32.628Z,3.25
2023-04-14T12:30:36.010Z,2.70
2023-04-14T12:34:38.572Z,3.78
2023-04-14T12:38:41.529Z,2.97
2023-04-14T12:42:51.987Z,2.67
2023-04-14T12:46:55.291Z,3.33
2023-04-14T12:51:08.272Z,2.60
2023-04-14T12:55:21.097Z,2.80
2023-04-14T12:59:23.101Z,4.05
2023-04-14T13:03:25.335Z,4.40
2023-04-14T13:07:27.485Z,4.28
2023-04-14T13:11:31.241Z,3.92
2023-04-14T13:16:13.082Z,4.78
2023-04-14T13:19:55.425Z,3.38
2023-04-14T13:23:57.454Z,3.53
2023-04-14T13:27:59.529Z,3.58
2023-04-14T13:32:01.698Z,3.70
2023-04-14T13:36:04.102Z,3.53
2023-04-14T13:40:06.909Z,3.75
2023-04-14T13:44:09.175Z,3.67
2023-04-14T13:48:11.178Z,3.55
2023-04-14T13:52:13.281Z,3.17
2023-04-14T13:56:15.373Z,3.35
2023-04-14T14:00:17.917Z,3.60
2023-04-14T14:04:19.928Z,3.38
2023-04-14T14:08:22.012Z,2.80
2023-04-14T14:12:24.087Z,3.13
2023-04-14T14:20:31.350Z,2.70
2023-04-14T14:24:33.499Z,4.40
2023-04-14T14:28:35.451Z,3.50
2023-04-14T14:32:37.569Z,3.30
2023-04-14T14:36:39.711Z,3.50
2023-04-14T14:40:41.766Z,3.05
2023-04-14T14:44:43.715Z,4.50
2023-04-14T14:48:46.076Z,4.30
2023-04-14T14:52:48.054Z,3.80
2023-04-14T14:56:50.047Z,4.07
2023-04-14T15:00:52.792Z,4.03
2023-04-14T15:04:54.853Z,4.15
2023-04-14T15:08:57.172Z,3.05
2023-04-14T15:12:59.458Z,4.07
2023-04-14T15:17:02.489Z,4.40
2023-04-14T15:21:04.845Z,4.70
2023-04-14T15:25:09.265Z,5.25
2023-04-14T15:29:11.532Z,4.90
2023-04-14T15:33:13.646Z,5.10
2023-04-14T15:37:15.728Z,5.43
2023-04-14T15:41:17.763Z,5.28
2023-04-14T15:45:19.880Z,4.45
2023-04-14T15:49:21.907Z,4.53
2023-04-14T15:53:23.871Z,5.32
2023-04-14T15:57:26.077Z,4.30
2023-04-14T16:01:28.251Z,5.00
2023-04-14T16:05:30.404Z,4.90
2023-04-14T16:09:32.604Z,4.40
2023-04-14T16:13:34.647Z,4.10
2023-04-14T16:17:36.682Z,4.60
2023-04-14T16:21:38.768Z,4.18
2023-04-14T16:25:41.642Z,4.18
2023-04-14T16:29:43.585Z,4.90
2023-04-14T16:33:45.806Z,4.05
2023-04-14T16:37:47.928Z,4.32
2023-04-14T16:41:50.013Z,4.38
2023-04-14T16:45:52.152Z,4.10
2023-04-14T16:49:54.397Z,4.60
2023-04-14T16:53:56.428Z,5.45
2023-04-14T16:57:58.393Z,5.25
2023-04-14T17:02:01.171Z,5.50
2023-04-14T17:06:03.845Z,6.28
2023-04-14T17:10:06.478Z,5.35
2023-04-14T17:14:08.898Z,5.97
2023-04-14T17:18:11.846Z,5.63
2023-04-14T17:22:15.224Z,7.15
2023-04-14T17:26:17.349Z,6.55
2023-04-14T17:30:20.235Z,6.68
2023-04-14T17:34:22.837Z,6.80
2023-04-14T17:38:25.087Z,8.20
2023-04-14T17:42:27.745Z,6.88
2023-04-14T17:46:33.858Z,7.25
2023-04-14T17:50:35.965Z,8.05
2023-04-14T17:54:38.340Z,9.07
2023-04-14T17:58:40.407Z,8.90
2023-04-14T18:02:42.602Z,8.63
2023-04-14T18:06:44.770Z,8.75
2023-04-14T18:10:46.379Z,9.02
2023-04-14T18:14:51.699Z,9.85
2023-04-14T18:18:54.507Z,9.00
2023-04-14T18:23:01.951Z,9.90
2023-04-14T18:31:13.755Z,8.55
2023-04-14T18:35:16.051Z,9.02
2023-04-14T18:39:18.840Z,9.90
2023-04-14T18:43:21.306Z,9.73
2023-04-14T18:47:23.827Z,9.07
2023-04-14T18:51:26.014Z,10.45
2023-04-14T18:55:28.463Z,9.82
2023-04-14T18:59:46.417Z,9.30
2023-04-14T19:03:48.544Z,9.75
2023-04-14T19:07:51.026Z,9.75
2023-04-14T19:11:53.217Z,9.90
2023-04-14T19:16:14.717Z,9.55
2023-04-14T19:20:16.836Z,9.77
2023-04-14T19:24:19.997Z,9.00
2023-04-14T19:28:22.190Z,10.20
2023-04-14T19:32:24.395Z,8.82
2023-04-14T19:36:26.691Z,9.95
2023-04-14T19:40:29.079Z,8.98
2023-04-14T19:44:31.255Z,10.25
2023-04-14T19:48:34.014Z,9.45
2023-04-14T19:52:36.582Z,10.35
2023-04-14T19:56:38.974Z,9.60
2023-04-14T20:00:41.077Z,10.10
2023-04-14T20:04:44.841Z,10.18
2023-04-14T20:08:47.293Z,10.73
2023-04-14T20:12:49.760Z,10.15
2023-04-14T20:16:51.815Z,11.05
2023-04-14T20:20:54.822Z,9.57
2023-04-14T20:24:56.865Z,10.05
2023-04-14T20:28:59.252Z,11.00
2023-04-14T20:33:05.826Z,10.30
2023-04-14T20:37:08.151Z,10.38
2023-04-14T20:41:10.159Z,10.20
2023-04-14T20:45:12.423Z,10.48
2023-04-14T20:49:14.437Z,10.07
2023-04-14T20:53:17.838Z,10.77
2023-04-14T20:57:20.105Z,9.80
2023-04-14T21:01:23.913Z,9.73
2023-04-14T21:05:26.314Z,9.60
2023-04-14T21:09:28.434Z,10.20
2023-04-14T21:15:26.702Z,11.60
2023-04-14T21:17:52.798Z,10.40
2023-04-14T21:21:54.889Z,11.25
2023-04-14T21:25:57.482Z,11.00
2023-04-14T21:29:59.565Z,12.00
2023-04-14T21:34:01.724Z,11.30
2023-04-14T21:38:03.777Z,11.30
2023-04-14T21:42:05.861Z,9.93
2023-04-14T21:46:08.113Z,11.02
2023-04-14T21:50:10.548Z,10.80
2023-04-14T21:54:12.741Z,11.23
2023-04-14T21:58:14.982Z,10.93
2023-04-14T22:02:17.130Z,10.20
2023-04-14T22:06:21.046Z,11.30
2023-04-14T22:10:23.503Z,11.02
2023-04-14T22:14:25.751Z,10.73
2023-04-14T22:18:28.694Z,12.55
2023-04-14T22:22:30.799Z,10.70
2023-04-14T22:26:32.790Z,10.82
2023-04-14T22:30:35.232Z,11.50
2023-04-14T22:34:37.413Z,11.60
2023-04-14T22:38:39.575Z,10.30
2023-04-14T22:42:41.836Z,10.52
2023-04-14T22:46:43.922Z,10.70
2023-04-14T22:50:46.065Z,11.38
2023-04-14T22:54:48.789Z,10.00
2023-04-14T22:58:50.918Z,10.57
2023-04-14T23:02:53.715Z,10.75
2023-04-14T23:06:55.950Z,11.02
2023-04-14T23:10:58.400Z,11.57
2023-04-14T23:15:00.963Z,10.65
2023-04-14T23:19:03.208Z,10.18
2023-04-14T23:23:05.933Z,11.38
2023-04-14T23:27:08.264Z,10.93
2023-04-14T23:31:10.850Z,10.05
2023-04-14T23:35:13.231Z,10.60
2023-04-14T23:39:15.510Z,10.65
2023-04-14T23:43:17.598Z,10.60
2023-04-14T23:47:19.744Z,11.70
2023-04-14T23:51:22.424Z,10.65
2023-04-14T23:55:25.100Z,11.48
2023-04-14T23:59:27.120Z,11.68
